createdAt,value
2019-03-30T00:03:53.854Z,5.40
2019-03-30T00:06:23.145Z,5.40
2019-03-30T00:08:52.434Z,5.30
2019-03-30T00:11:21.809Z,5.30
2019-03-30T00:13:51.078Z,5.20
2019-03-30T00:16:20.384Z,5.20
2019-03-30T00:18:49.692Z,5.20
2019-03-30T00:21:19.044Z,5.10
2019-03-30T00:23:48.333Z,5.10
2019-03-30T00:26:17.608Z,5.10
2019-03-30T00:28:47.227Z,5.10
2019-03-30T00:33:45.162Z,5.10
2019-03-30T00:38:43.320Z,5.00
2019-03-30T00:43:41.255Z,5.10
2019-03-30T00:48:39.127Z,5.00
2019-03-30T00:51:08.661Z,4.90
2019-03-30T00:53:37.957Z,4.90
2019-03-30T00:56:07.481Z,4.80
2019-03-30T00:58:36.779Z,4.80
2019-03-30T01:01:06.055Z,4.80
2019-03-30T01:03:35.337Z,4.70
2019-03-30T01:06:04.629Z,4.60
2019-03-30T01:08:33.917Z,4.60
2019-03-30T01:11:03.205Z,4.60
2019-03-30T01:16:01.311Z,4.60
2019-03-30T01:20:59.189Z,4.50
2019-03-30T01:23:28.573Z,4.50
2019-03-30T01:25:57.861Z,4.50
2019-03-30T01:28:27.594Z,4.50
2019-03-30T01:30:56.881Z,4.50
2019-03-30T01:33:26.170Z,4.40
2019-03-30T01:35:55.690Z,4.40
2019-03-30T01:38:24.981Z,4.40
2019-03-30T01:43:22.837Z,4.30
2019-03-30T01:45:52.189Z,4.30
2019-03-30T01:48:21.628Z,4.30
2019-03-30T01:50:50.913Z,4.30
2019-03-30T01:53:20.282Z,4.30
2019-03-30T01:55:49.566Z,4.30
2019-03-30T01:58:18.877Z,4.20
2019-03-30T02:00:48.237Z,4.20
2019-03-30T02:03:17.622Z,4.20
2019-03-30T02:08:15.845Z,4.10
2019-03-30T02:13:14.153Z,4.20
2019-03-30T02:15:43.452Z,4.10
2019-03-30T02:18:13.078Z,4.10
2019-03-30T02:20:43.977Z,4.00
2019-03-30T02:23:13.422Z,4.00
2019-03-30T02:25:42.831Z,4.00
2019-03-30T02:28:12.287Z,3.90
2019-03-30T02:30:41.671Z,3.90
2019-03-30T02:33:11.059Z,3.90
2019-03-30T02:38:09.253Z,3.90
2019-03-30T02:43:07.106Z,3.80
2019-03-30T02:45:36.826Z,3.80
2019-03-30T02:50:48.583Z,3.70
2019-03-30T02:55:34.427Z,3.80
2019-03-30T02:58:03.764Z,3.70
2019-03-30T03:00:33.252Z,3.70
2019-03-30T03:03:02.609Z,3.70
2019-03-30T03:05:31.927Z,3.70
2019-03-30T03:08:01.204Z,3.60
2019-03-30T03:10:30.658Z,3.60
2019-03-30T03:12:59.951Z,3.60
2019-03-30T03:15:29.254Z,3.70
2019-03-30T03:20:27.133Z,3.60
2019-03-30T03:22:56.516Z,3.60
2019-03-30T03:25:25.918Z,3.60
2019-03-30T03:27:55.492Z,3.50
2019-03-30T03:30:24.811Z,3.50
2019-03-30T03:32:54.095Z,3.50
2019-03-30T03:37:51.996Z,3.40
2019-03-30T03:40:21.297Z,3.40
2019-03-30T03:45:19.177Z,3.30
2019-03-30T03:47:48.559Z,3.30
2019-03-30T03:50:58.038Z,3.30
2019-03-30T03:53:27.461Z,3.30
2019-03-30T03:55:58.521Z,3.30
2019-03-30T03:58:31.617Z,3.30
2019-03-30T04:03:33.015Z,3.30
2019-03-30T04:08:34.153Z,3.20
2019-03-30T04:11:04.817Z,3.20
2019-03-30T04:13:34.247Z,3.20
2019-03-30T04:16:03.626Z,3.20
2019-03-30T04:18:32.915Z,3.20
2019-03-30T04:21:02.216Z,3.20
2019-03-30T04:23:31.580Z,3.20
2019-03-30T04:28:29.457Z,3.10
2019-03-30T04:30:58.816Z,3.10
2019-03-30T04:33:28.125Z,3.00
2019-03-30T04:35:57.429Z,3.00
2019-03-30T04:38:26.723Z,3.00
2019-03-30T04:40:56.021Z,3.00
2019-03-30T04:43:25.299Z,3.00
2019-03-30T04:48:23.415Z,2.90
2019-03-30T04:53:21.297Z,3.00
2019-03-30T04:55:50.581Z,3.00
2019-03-30T04:58:19.881Z,3.00
2019-03-30T05:00:49.163Z,3.00
2019-03-30T05:03:18.458Z,2.90
2019-03-30T05:05:47.738Z,2.90
2019-03-30T05:08:17.114Z,2.90
2019-03-30T05:13:15.202Z,3.00
2019-03-30T05:18:13.738Z,2.90
2019-03-30T05:20:43.025Z,2.90
2019-03-30T05:23:12.322Z,2.90
2019-03-30T05:25:41.609Z,2.90
2019-03-30T05:28:10.905Z,2.90
2019-03-30T05:30:40.210Z,2.90
2019-03-30T05:33:09.765Z,3.00
2019-03-30T05:35:39.057Z,3.00
2019-03-30T05:40:37.195Z,3.10
2019-03-30T05:43:06.505Z,3.20
2019-03-30T05:45:35.877Z,3.30
2019-03-30T05:50:33.825Z,3.50
2019-03-30T05:53:03.140Z,3.40
2019-03-30T05:55:32.425Z,3.40
2019-03-30T05:58:01.725Z,3.30
2019-03-30T06:00:31.082Z,3.30
2019-03-30T06:03:00.373Z,3.30
2019-03-30T06:10:27.030Z,3.60
2019-03-30T06:15:26.214Z,4.00
2019-03-30T06:17:56.605Z,4.10
2019-03-30T06:20:25.900Z,4.30
2019-03-30T06:22:55.226Z,4.30
2019-03-30T06:25:24.779Z,4.50
2019-03-30T06:27:54.177Z,4.60
2019-03-30T06:30:26.985Z,4.80
2019-03-30T06:32:56.686Z,4.80
2019-03-30T06:35:26.254Z,5.00
2019-03-30T06:37:55.568Z,5.20
2019-03-30T06:40:24.868Z,5.40
2019-03-30T06:42:54.197Z,5.60
2019-03-30T06:45:23.500Z,5.80
2019-03-30T06:50:22.241Z,6.30
2019-03-30T06:52:58.125Z,6.50
2019-03-30T06:55:22.589Z,6.80
2019-03-30T06:57:51.890Z,7.10
2019-03-30T07:00:31.721Z,7.80
2019-03-30T07:03:03.142Z,8.50
2019-03-30T07:05:34.750Z,9.90
2019-03-30T07:08:05.189Z,10.60
2019-03-30T07:13:04.517Z,13.50
2019-03-30T07:15:35.737Z,13.60
2019-03-30T07:18:05.173Z,13.10
2019-03-30T07:20:34.656Z,13.40
2019-03-30T07:23:11.676Z,13.80
2019-03-30T07:25:35.021Z,13.60
2019-03-30T07:28:04.315Z,13.60
2019-03-30T07:30:33.729Z,14.00
2019-03-30T07:33:03.013Z,14.00
2019-03-30T07:38:00.874Z,13.60
2019-03-30T07:40:32.504Z,13.50
2019-03-30T07:45:29.937Z,13.20
2019-03-30T07:47:59.309Z,12.80
2019-03-30T07:50:28.602Z,12.30
2019-03-30T07:52:57.909Z,11.90
2019-03-30T07:55:27.205Z,11.70
2019-03-30T07:57:56.776Z,11.50
2019-03-30T08:00:30.665Z,11.60
2019-03-30T08:02:57.250Z,11.90
2019-03-30T08:07:55.474Z,13.40
2019-03-30T08:10:25.189Z,13.60
2019-03-30T08:12:54.482Z,14.10
2019-03-30T08:15:25.329Z,14.10
2019-03-30T08:17:54.678Z,13.90
2019-03-30T08:20:23.954Z,13.60
2019-03-30T08:22:53.285Z,13.20
2019-03-30T08:25:22.904Z,13.50
2019-03-30T08:27:52.164Z,14.00
2019-03-30T08:30:21.595Z,14.00
2019-03-30T08:32:50.955Z,14.00
2019-03-30T08:37:49.218Z,13.90
2019-03-30T08:40:18.538Z,14.30
2019-03-30T08:42:58.224Z,14.30
2019-03-30T08:45:27.330Z,14.30
2019-03-30T08:47:56.617Z,14.30
2019-03-30T08:50:26.251Z,14.20
2019-03-30T08:52:56.553Z,14.40
2019-03-30T08:55:25.905Z,14.40
2019-03-30T08:57:55.792Z,14.70
2019-03-30T09:00:39.117Z,14.60
2019-03-30T09:03:08.721Z,14.70
2019-03-30T09:05:38.261Z,14.90
2019-03-30T09:08:07.649Z,14.90
2019-03-30T09:13:07.659Z,15.30
2019-03-30T09:18:06.127Z,15.60
2019-03-30T09:20:35.939Z,15.70
2019-03-30T09:23:05.409Z,15.80
2019-03-30T09:25:34.701Z,16.00
2019-03-30T09:28:04.097Z,16.20
2019-03-30T09:30:33.462Z,16.30
2019-03-30T09:33:04.606Z,16.50
2019-03-30T09:35:33.902Z,16.60
2019-03-30T09:38:03.299Z,16.60
2019-03-30T09:40:32.659Z,16.60
2019-03-30T09:43:02.085Z,16.60
2019-03-30T09:45:31.637Z,16.70
2019-03-30T09:48:00.921Z,16.70
2019-03-30T09:50:30.290Z,16.70
2019-03-30T09:52:59.662Z,16.60
2019-03-30T09:55:28.945Z,16.70
2019-03-30T09:57:58.254Z,16.80
2019-03-30T10:00:27.573Z,16.80
2019-03-30T10:02:56.910Z,16.90
2019-03-30T10:05:26.374Z,16.90
2019-03-30T10:07:55.969Z,17.00
2019-03-30T10:10:25.318Z,16.90
2019-03-30T10:12:54.965Z,17.00
2019-03-30T10:15:24.322Z,17.10
2019-03-30T10:17:53.707Z,17.20
2019-03-30T10:20:23.405Z,17.30
2019-03-30T10:22:52.718Z,17.30
2019-03-30T10:25:22.439Z,17.40
2019-03-30T10:27:51.755Z,17.40
2019-03-30T10:30:21.156Z,17.50
2019-03-30T10:35:19.022Z,17.70
2019-03-30T10:40:16.973Z,18.00
2019-03-30T10:42:46.302Z,18.00
2019-03-30T10:45:15.937Z,18.00
2019-03-30T10:50:14.009Z,18.00
2019-03-30T10:52:43.315Z,18.10
2019-03-30T10:55:13.154Z,18.00
2019-03-30T10:57:42.447Z,18.10
2019-03-30T11:00:12.381Z,18.10
2019-03-30T11:02:41.719Z,18.10
2019-03-30T11:05:11.084Z,18.20
2019-03-30T11:07:40.459Z,18.30
2019-03-30T11:10:10.502Z,18.40
2019-03-30T11:12:39.793Z,18.50
2019-03-30T11:20:06.409Z,18.40
2019-03-30T11:22:35.732Z,18.40
2019-03-30T11:25:08.684Z,18.50
2019-03-30T11:27:36.762Z,18.60
2019-03-30T11:30:06.789Z,18.70
2019-03-30T11:32:36.090Z,18.60
2019-03-30T11:35:05.562Z,18.70
2019-03-30T11:37:34.853Z,18.60
2019-03-30T11:40:04.337Z,18.70
2019-03-30T11:42:33.909Z,18.70
2019-03-30T11:47:31.870Z,18.90
2019-03-30T11:50:01.165Z,18.90
2019-03-30T11:52:30.537Z,19.00
2019-03-30T11:54:59.836Z,19.00
2019-03-30T11:57:29.137Z,19.10
2019-03-30T11:59:58.428Z,19.00
2019-03-30T12:02:28.465Z,19.10
2019-03-30T12:04:57.925Z,19.00
2019-03-30T12:07:27.229Z,19.00
2019-03-30T12:09:56.687Z,19.20
2019-03-30T12:12:25.981Z,19.20
2019-03-30T12:14:55.343Z,19.10
2019-03-30T12:17:24.625Z,19.10
2019-03-30T12:19:54.165Z,19.10
2019-03-30T12:22:23.444Z,19.00
2019-03-30T12:24:52.743Z,19.10
2019-03-30T12:27:22.030Z,19.00
2019-03-30T12:29:51.321Z,18.90
2019-03-30T12:32:20.597Z,19.00
2019-03-30T12:34:50.104Z,19.00
2019-03-30T12:37:19.456Z,19.00
2019-03-30T12:42:17.661Z,19.00
2019-03-30T12:47:15.631Z,18.80
2019-03-30T12:49:45.334Z,18.80
2019-03-30T12:57:12.030Z,18.80
2019-03-30T12:59:41.317Z,18.90
2019-03-30T13:02:10.596Z,18.90
2019-03-30T13:04:39.873Z,19.00
2019-03-30T13:07:09.157Z,19.10
2019-03-30T13:09:38.458Z,19.00
2019-03-30T13:12:07.745Z,18.90
2019-03-30T13:14:37.034Z,18.80
2019-03-30T13:17:06.311Z,18.80
2019-03-30T13:19:35.587Z,18.80
2019-03-30T13:22:04.933Z,18.80
2019-03-30T13:24:34.425Z,18.80
2019-03-30T13:27:03.778Z,18.90
2019-03-30T13:29:33.105Z,19.00
2019-03-30T13:32:02.397Z,19.10
2019-03-30T13:34:31.677Z,19.00
2019-03-30T13:37:02.782Z,19.00
2019-03-30T13:39:32.065Z,18.90
2019-03-30T13:42:01.404Z,18.90
2019-03-30T13:46:59.250Z,19.10
2019-03-30T13:51:58.848Z,19.20
2019-03-30T13:56:56.709Z,19.40
2019-03-30T13:59:25.985Z,19.40
2019-03-30T14:01:55.286Z,19.40
2019-03-30T14:06:53.193Z,19.30
2019-03-30T14:09:23.784Z,19.50
2019-03-30T14:11:53.152Z,19.60
2019-03-30T14:14:22.429Z,19.60
2019-03-30T14:16:51.797Z,19.60
2019-03-30T14:21:49.657Z,19.60
2019-03-30T14:24:18.954Z,19.50
2019-03-30T14:26:48.244Z,19.50
2019-03-30T14:29:17.775Z,19.50
2019-03-30T14:31:47.089Z,19.30
2019-03-30T14:34:16.369Z,19.30
2019-03-30T14:36:45.665Z,19.20
2019-03-30T14:39:14.987Z,19.10
2019-03-30T14:41:44.277Z,19.10
2019-03-30T14:44:13.801Z,19.10
2019-03-30T14:46:43.098Z,19.20
2019-03-30T14:49:12.374Z,19.40
2019-03-30T14:51:41.685Z,19.20
2019-03-30T14:54:10.954Z,19.20
2019-03-30T14:56:45.700Z,19.10
2019-03-30T15:01:41.882Z,19.20
2019-03-30T15:04:11.361Z,19.20
2019-03-30T15:09:09.429Z,19.20
2019-03-30T15:14:07.481Z,19.20
2019-03-30T15:16:36.782Z,19.20
2019-03-30T15:19:06.187Z,19.10
2019-03-30T15:21:35.597Z,19.00
2019-03-30T15:24:04.938Z,19.00
2019-03-30T15:26:34.241Z,18.90
2019-03-30T15:29:03.617Z,18.90
2019-03-30T15:31:32.885Z,18.80
2019-03-30T15:34:02.370Z,18.90
2019-03-30T15:36:31.653Z,18.80
2019-03-30T15:39:00.953Z,18.80
2019-03-30T15:41:30.237Z,18.70
2019-03-30T15:43:59.531Z,18.70
2019-03-30T15:48:57.394Z,18.50
2019-03-30T15:51:26.665Z,18.40
2019-03-30T15:53:56.041Z,18.50
2019-03-30T15:56:26.497Z,18.50
2019-03-30T15:58:56.114Z,18.30
2019-03-30T16:03:54.069Z,18.30
2019-03-30T16:06:23.348Z,18.30
2019-03-30T16:08:52.641Z,18.30
2019-03-30T16:11:22.165Z,18.20
2019-03-30T16:13:51.953Z,18.10
2019-03-30T16:16:21.233Z,18.10
2019-03-30T16:18:50.585Z,18.00
2019-03-30T16:21:19.889Z,18.00
2019-03-30T16:23:49.174Z,17.90
2019-03-30T16:26:18.611Z,17.90
2019-03-30T16:28:47.970Z,17.90
2019-03-30T16:31:17.585Z,17.80
2019-03-30T16:33:47.148Z,17.70
2019-03-30T16:38:44.985Z,17.70
2019-03-30T16:43:42.853Z,17.60
2019-03-30T16:46:12.213Z,17.50
2019-03-30T16:51:10.237Z,17.40
2019-03-30T16:53:39.527Z,17.40
2019-03-30T16:56:08.809Z,17.30
2019-03-30T16:58:38.157Z,17.20
2019-03-30T17:01:07.454Z,17.20
2019-03-30T17:03:37.161Z,17.10
2019-03-30T17:08:35.029Z,17.00
2019-03-30T17:13:32.879Z,16.90
2019-03-30T17:16:02.493Z,16.80
2019-03-30T17:18:31.764Z,16.60
2019-03-30T17:21:01.069Z,16.60
2019-03-30T17:23:30.355Z,16.50
2019-03-30T17:25:59.644Z,16.50
2019-03-30T17:28:28.918Z,16.40
2019-03-30T17:30:58.197Z,16.30
2019-03-30T17:33:27.487Z,16.30
2019-03-30T17:38:25.584Z,16.10
2019-03-30T17:40:54.945Z,15.90
2019-03-30T17:43:24.233Z,15.80
2019-03-30T17:45:53.533Z,15.60
2019-03-30T17:50:51.385Z,15.50
2019-03-30T17:53:20.825Z,15.20
2019-03-30T17:55:50.133Z,15.10
2019-03-30T17:58:19.428Z,14.80
2019-03-30T18:00:48.811Z,14.70
2019-03-30T18:03:18.094Z,14.50
2019-03-30T18:05:47.629Z,14.30
2019-03-30T18:08:16.923Z,14.10
2019-03-30T18:10:46.199Z,14.10
2019-03-30T18:13:15.473Z,13.80
2019-03-30T18:15:45.021Z,13.80
2019-03-30T18:18:14.560Z,13.40
2019-03-30T18:20:44.021Z,13.30
2019-03-30T18:23:13.301Z,13.20
2019-03-30T18:25:42.693Z,13.10
2019-03-30T18:28:26.174Z,12.90
2019-03-30T18:30:43.186Z,12.90
2019-03-30T18:33:12.925Z,12.80
2019-03-30T18:35:42.312Z,12.50
2019-03-30T18:38:13.119Z,12.40
2019-03-30T18:40:42.641Z,12.20
2019-03-30T18:43:12.106Z,12.20
2019-03-30T18:45:41.408Z,12.10
2019-03-30T18:48:14.942Z,12.00
2019-03-30T18:50:45.088Z,11.80
2019-03-30T18:53:14.861Z,11.80
2019-03-30T18:55:44.476Z,11.70
2019-03-30T18:58:14.286Z,11.60
2019-03-30T19:00:43.923Z,11.50
2019-03-30T19:03:13.301Z,11.40
2019-03-30T19:05:42.590Z,11.30
2019-03-30T19:08:11.937Z,11.20
2019-03-30T19:10:41.409Z,11.10
2019-03-30T19:15:39.376Z,10.90
2019-03-30T19:18:08.698Z,10.90
2019-03-30T19:20:38.166Z,10.90
2019-03-30T19:23:07.472Z,10.80
2019-03-30T19:25:36.835Z,10.70
2019-03-30T19:28:06.213Z,10.60
2019-03-30T19:33:04.169Z,10.50
2019-03-30T19:35:33.479Z,10.40
2019-03-30T19:38:04.070Z,10.40
2019-03-30T19:40:33.624Z,10.20
2019-03-30T19:43:03.246Z,10.30
2019-03-30T19:45:32.559Z,10.20
2019-03-30T19:48:01.853Z,10.10
2019-03-30T19:53:00.074Z,10.00
2019-03-30T19:55:29.397Z,10.00
2019-03-30T19:57:58.693Z,9.90
2019-03-30T20:00:28.069Z,9.90
2019-03-30T20:02:57.662Z,9.80
2019-03-30T20:05:26.968Z,9.70
2019-03-30T20:07:56.263Z,9.70
2019-03-30T20:10:25.789Z,9.60
2019-03-30T20:12:55.080Z,9.60
2019-03-30T20:15:24.665Z,9.50
2019-03-30T20:17:54.027Z,9.50
2019-03-30T20:22:52.286Z,9.40
2019-03-30T20:25:21.649Z,9.30
2019-03-30T20:27:50.958Z,9.30
2019-03-30T20:30:20.519Z,9.20
2019-03-30T20:32:49.848Z,9.10
2019-03-30T20:35:19.230Z,9.10
2019-03-30T20:40:17.181Z,9.10
2019-03-30T20:45:16.273Z,9.00
2019-03-30T20:47:45.633Z,8.90
2019-03-30T20:52:43.998Z,8.80
2019-03-30T20:55:13.543Z,8.70
2019-03-30T20:57:42.841Z,8.80
2019-03-30T21:00:12.873Z,8.70
2019-03-30T21:02:42.520Z,8.70
2019-03-30T21:05:12.906Z,8.60
2019-03-30T21:12:40.147Z,8.50
2019-03-30T21:15:09.607Z,8.50
2019-03-30T21:20:08.020Z,8.50
2019-03-30T21:22:37.340Z,8.50
2019-03-30T21:25:07.136Z,8.40
2019-03-30T21:27:36.514Z,8.40
2019-03-30T21:30:08.445Z,8.30
2019-03-30T21:32:37.819Z,8.30
2019-03-30T21:37:35.925Z,8.20
2019-03-30T21:40:05.765Z,8.20
2019-03-30T21:45:03.925Z,8.20
2019-03-30T21:47:33.214Z,8.20
2019-03-30T21:52:31.193Z,8.10
2019-03-30T21:55:00.547Z,8.00
2019-03-30T21:57:30.153Z,8.00
2019-03-30T22:00:09.723Z,7.90
2019-03-30T22:02:30.477Z,7.90
2019-03-30T22:05:00.084Z,7.90
2019-03-30T22:07:29.778Z,7.80
2019-03-30T22:09:59.486Z,7.80
2019-03-30T22:14:57.933Z,7.70
2019-03-30T22:19:55.969Z,7.60
2019-03-30T22:22:25.261Z,7.50
2019-03-30T22:27:23.168Z,7.50
2019-03-30T22:29:52.464Z,7.50
2019-03-30T22:32:21.746Z,7.60
2019-03-30T22:34:51.074Z,7.50
2019-03-30T22:39:49.086Z,7.40
2019-03-30T22:47:15.585Z,7.30
2019-03-30T22:49:44.906Z,7.30
2019-03-30T22:52:14.213Z,7.20
2019-03-30T22:54:43.505Z,7.20
2019-03-30T22:57:12.893Z,7.20
2019-03-30T22:59:42.454Z,7.20
2019-03-30T23:02:11.924Z,7.20
2019-03-30T23:04:41.241Z,7.10
2019-03-30T23:07:10.788Z,7.20
2019-03-30T23:09:40.152Z,7.20
2019-03-30T23:12:09.683Z,7.10
2019-03-30T23:14:39.010Z,7.10
2019-03-30T23:19:36.928Z,6.90
2019-03-30T23:22:06.219Z,6.90
2019-03-30T23:24:35.525Z,6.90
2019-03-30T23:27:04.901Z,6.90
2019-03-30T23:29:34.257Z,6.90
2019-03-30T23:32:03.870Z,6.80
2019-03-30T23:34:36.330Z,6.80
2019-03-30T23:37:05.633Z,6.70
2019-03-30T23:39:34.941Z,6.60
2019-03-30T23:42:06.383Z,6.60
2019-03-30T23:44:35.690Z,6.60
2019-03-30T23:47:05.104Z,6.50
2019-03-30T23:49:34.412Z,6.50
2019-03-30T23:52:03.784Z,6.60
2019-03-30T23:54:33.173Z,6.50
2019-03-30T23:57:02.489Z,6.60
2019-03-30T23:59:31.841Z,6.50
